DRZR

Details ICAO DRZR (ZND)
Name ZINDER
Region Niger
Timezone Africa/Niamey (UTC+1.0)
Plans Departing 12
Arriving 7
Stats Elevation 1,516 ft / 462 m (AMSL)
Location 13.778996° 8.983761°
Runways 1
Magnetic Variation 0.267° E
Sunrise 2018-05-27 04:57:02 UTC / 2018-05-27 05:57:02 Local
Sunset 2018-05-27 17:48:17 UTC / 2018-05-27 18:48:17 Local
Advertisement - Login to hide

Runways

ID Width Length Bearing (true) Bearing (mag) Surface Threshold Offset Overrun Length
05 98 ft / 30 m 6,013 ft / 1,833 m 53.09° 52.82° Asphalt 0 ft / 0 m 0 ft / 0 m
23 98 ft / 30 m 6,013 ft / 1,833 m 233.09° 232.82° Asphalt 0 ft / 0 m 0 ft / 0 m

Map

Weather


0- 5 10 15 20 25 30 35+ Temperature / ° C

Clouds and Precipitation
Forecast for 2018-05-27 12:00 UTC. Updated 34 minutes ago

Ground ~20,000 ft ~40,000 ft Winds

METAR

DRZR 271100Z 30008KT 9999 FEW040 37/20 Q1014

TAF

TAF DRZR 270500Z 2706/2806 26010KT 8000 NSC PROB40 TEMPO 2715/2720 VRB25KT 2000 BLDU -TSRA SCT033 FEW040CB

Frequencies

Tower 118.30 MHz TWR
Warning: Do not use this data for real-world aviation or navigation. No guarantee of current accuracy is given.